createdAt,value
2023-03-13T00:00:22.780Z,39.83
2023-03-13T00:02:50.322Z,23.50
2023-03-13T00:05:16.923Z,19.50
2023-03-13T00:07:43.394Z,14.57
2023-03-13T00:10:10.063Z,18.15
2023-03-13T00:12:36.417Z,16.17
2023-03-13T00:15:02.847Z,22.08
2023-03-13T00:17:33.362Z,21.10
2023-03-13T00:20:02.647Z,21.70
2023-03-13T00:22:29.013Z,22.50
2023-03-13T00:24:58.859Z,23.20
2023-03-13T00:27:25.223Z,22.63
2023-03-13T00:29:51.651Z,89.65
2023-03-13T00:32:18.027Z,39.72
2023-03-13T00:34:44.625Z,34.33
2023-03-13T00:37:11.000Z,159.32
2023-03-13T00:39:37.371Z,94.78
2023-03-13T00:42:04.336Z,37.17
2023-03-13T00:44:30.776Z,20.13
2023-03-13T00:46:57.406Z,164.88
2023-03-13T00:49:23.741Z,181.13
2023-03-13T00:51:50.164Z,85.93
2023-03-13T00:54:18.923Z,91.20
2023-03-13T00:56:45.298Z,65.80
2023-03-13T00:59:11.632Z,39.92
2023-03-13T01:01:38.075Z,17.00
2023-03-13T01:04:11.742Z,11.88
2023-03-13T01:06:40.796Z,22.45
2023-03-13T01:09:07.729Z,53.15
2023-03-13T01:11:35.508Z,38.00
2023-03-13T01:14:03.403Z,49.63
2023-03-13T01:16:31.010Z,98.05
2023-03-13T01:18:59.602Z,52.75
2023-03-13T01:21:26.744Z,28.92
2023-03-13T01:23:53.651Z,44.40
2023-03-13T01:26:21.076Z,71.30
2023-03-13T01:28:47.631Z,96.20
2023-03-13T01:31:15.002Z,42.45
2023-03-13T01:33:41.602Z,38.72
2023-03-13T01:36:09.047Z,53.72
2023-03-13T01:38:35.711Z,90.70
2023-03-13T01:41:02.490Z,104.75
2023-03-13T01:43:30.267Z,61.83
2023-03-13T01:46:16.393Z,41.35
2023-03-13T01:48:42.818Z,50.78
2023-03-13T01:51:11.800Z,40.90
2023-03-13T01:53:41.355Z,41.05
2023-03-13T01:56:10.042Z,64.68
2023-03-13T01:58:36.690Z,132.48
2023-03-13T02:01:03.800Z,88.43
2023-03-13T02:03:30.478Z,72.72
2023-03-13T02:05:57.774Z,59.65
2023-03-13T02:08:25.819Z,54.35
2023-03-13T02:11:18.452Z,22.08
2023-03-13T02:13:44.914Z,201.93
2023-03-13T02:16:11.495Z,85.60
2023-03-13T02:18:38.350Z,20.73
2023-03-13T02:21:10.068Z,13.63
2023-03-13T02:23:42.228Z,12.15
2023-03-13T02:26:09.074Z,27.05
2023-03-13T02:28:39.038Z,16.17
2023-03-13T02:31:06.052Z,9.50
2023-03-13T02:33:35.268Z,18.02
2023-03-13T02:36:05.246Z,21.55
2023-03-13T02:38:33.010Z,22.05
2023-03-13T02:41:00.675Z,20.73
2023-03-13T02:43:31.546Z,58.85
2023-03-13T02:46:09.013Z,32.72
2023-03-13T02:48:41.915Z,16.20
2023-03-13T02:51:20.304Z,6.15
2023-03-13T02:53:47.585Z,15.20
2023-03-13T02:56:17.335Z,9.00
2023-03-13T02:58:51.613Z,16.38
2023-03-13T03:01:18.064Z,18.13
2023-03-13T03:03:44.572Z,6.70
2023-03-13T03:06:11.034Z,10.13
2023-03-13T03:08:41.325Z,5.10
2023-03-13T03:11:07.773Z,6.13
2023-03-13T03:13:34.172Z,4.50
2023-03-13T03:16:07.645Z,3.10
2023-03-13T03:18:34.747Z,4.70
2023-03-13T03:21:01.157Z,5.13
2023-03-13T03:23:27.657Z,4.28
2023-03-13T03:25:53.992Z,7.22
2023-03-13T03:28:20.334Z,8.02
2023-03-13T03:30:46.682Z,5.80
2023-03-13T03:33:13.051Z,6.03
2023-03-13T03:35:40.786Z,5.60
2023-03-13T03:38:07.171Z,3.83
2023-03-13T03:40:33.610Z,4.40
2023-03-13T03:43:00.037Z,5.07
2023-03-13T03:45:26.469Z,4.20
2023-03-13T03:47:52.827Z,4.68
2023-03-13T03:50:19.169Z,6.25
2023-03-13T03:52:45.523Z,4.53
2023-03-13T03:55:11.974Z,5.45
2023-03-13T03:57:38.421Z,7.50
2023-03-13T04:00:06.018Z,5.20
2023-03-13T04:02:32.411Z,3.72
2023-03-13T04:04:58.779Z,5.03
2023-03-13T04:07:26.217Z,5.20
2023-03-13T04:09:52.571Z,5.07
2023-03-13T04:12:18.920Z,3.97
2023-03-13T04:14:47.649Z,4.70
2023-03-13T04:17:14.142Z,4.45
2023-03-13T04:19:40.580Z,3.78
2023-03-13T04:22:07.048Z,6.05
2023-03-13T04:24:33.500Z,4.90
2023-03-13T04:27:03.664Z,5.05
2023-03-13T04:29:30.017Z,3.40
2023-03-13T04:31:58.739Z,3.05
2023-03-13T04:34:25.112Z,6.47
2023-03-13T04:36:51.564Z,5.78
2023-03-13T04:39:17.925Z,4.65
2023-03-13T04:41:44.292Z,4.63
2023-03-13T04:44:10.759Z,3.97
2023-03-13T04:46:37.264Z,5.10
2023-03-13T04:49:03.612Z,3.58
2023-03-13T04:51:30.237Z,5.35
2023-03-13T04:53:56.605Z,4.30
2023-03-13T04:56:41.219Z,5.20
2023-03-13T04:59:09.559Z,5.53
2023-03-13T05:01:38.452Z,3.05
2023-03-13T05:04:05.121Z,2.97
2023-03-13T05:06:31.515Z,5.07
2023-03-13T05:08:57.912Z,4.82
2023-03-13T05:11:24.455Z,4.93
2023-03-13T05:13:50.954Z,5.72
2023-03-13T05:16:17.495Z,3.83
2023-03-13T05:18:46.354Z,3.75
2023-03-13T05:21:12.680Z,3.38
2023-03-13T05:23:39.049Z,3.83
2023-03-13T05:26:05.518Z,3.10
2023-03-13T05:28:31.955Z,3.30
2023-03-13T05:30:58.349Z,4.15
2023-03-13T05:33:25.005Z,2.83
2023-03-13T05:35:51.411Z,4.22
2023-03-13T05:38:18.332Z,3.00
2023-03-13T05:40:44.703Z,2.83
2023-03-13T05:43:11.116Z,4.03
2023-03-13T05:45:37.579Z,5.00
2023-03-13T05:48:04.117Z,3.90
2023-03-13T05:50:30.572Z,6.53
2023-03-13T05:52:56.971Z,15.60
2023-03-13T05:55:23.380Z,6.85
2023-03-13T05:57:49.862Z,5.25
2023-03-13T06:00:17.704Z,5.63
2023-03-13T06:02:46.733Z,5.00
2023-03-13T06:05:13.101Z,4.55
2023-03-13T06:07:39.473Z,4.20
2023-03-13T06:10:06.056Z,4.75
2023-03-13T06:12:32.809Z,6.28
2023-03-13T06:14:59.175Z,6.38
2023-03-13T06:17:25.635Z,9.77
2023-03-13T06:19:52.098Z,5.43
2023-03-13T06:22:19.067Z,4.30
2023-03-13T06:24:46.837Z,11.30
2023-03-13T06:27:13.330Z,13.95
2023-03-13T06:29:39.746Z,16.90
2023-03-13T06:32:06.621Z,17.70
2023-03-13T06:34:33.238Z,9.65
2023-03-13T06:37:00.528Z,10.23
2023-03-13T06:39:26.989Z,13.95
2023-03-13T06:41:53.396Z,18.67
2023-03-13T06:44:19.785Z,17.70
2023-03-13T06:46:46.198Z,13.18
2023-03-13T06:49:12.986Z,12.70
2023-03-13T06:51:39.361Z,15.00
2023-03-13T06:54:05.797Z,19.13
2023-03-13T06:56:32.352Z,22.10
2023-03-13T06:58:59.955Z,33.35
2023-03-13T07:01:26.699Z,34.80
2023-03-13T07:03:53.352Z,17.00
2023-03-13T07:06:19.970Z,24.65
2023-03-13T07:08:46.347Z,21.92
2023-03-13T07:11:18.197Z,10.20
2023-03-13T07:13:44.619Z,9.85
2023-03-13T07:16:15.124Z,7.40
2023-03-13T07:18:47.403Z,9.20
2023-03-13T07:21:14.110Z,7.18
2023-03-13T07:23:40.544Z,5.45
2023-03-13T07:26:08.012Z,7.80
2023-03-13T07:28:37.305Z,7.97
2023-03-13T07:31:05.565Z,8.35
2023-03-13T07:33:32.410Z,21.40
2023-03-13T07:35:58.819Z,15.75
2023-03-13T07:38:25.246Z,16.48
2023-03-13T07:40:53.052Z,19.77
2023-03-13T07:43:19.794Z,21.95
2023-03-13T07:45:58.911Z,22.55
2023-03-13T07:48:27.969Z,24.75
2023-03-13T07:50:55.013Z,18.42
2023-03-13T07:53:21.750Z,16.02
2023-03-13T07:55:56.410Z,21.65
2023-03-13T07:58:24.342Z,13.35
2023-03-13T08:00:50.935Z,16.77
2023-03-13T08:03:17.459Z,13.65
2023-03-13T08:05:43.926Z,14.60
2023-03-13T08:08:10.413Z,14.75
2023-03-13T08:10:36.941Z,15.13
2023-03-13T08:13:03.372Z,14.88
2023-03-13T08:15:29.799Z,13.63
2023-03-13T08:17:56.713Z,7.90
2023-03-13T08:20:23.427Z,9.63
2023-03-13T08:22:52.876Z,9.80
2023-03-13T08:25:19.440Z,6.13
2023-03-13T08:27:45.806Z,3.92
2023-03-13T08:30:12.494Z,3.80
2023-03-13T08:32:38.930Z,6.38
2023-03-13T08:35:05.474Z,4.85
2023-03-13T08:37:31.827Z,3.60
2023-03-13T08:39:58.181Z,4.50
2023-03-13T08:42:24.604Z,4.38
2023-03-13T08:44:50.948Z,4.88
2023-03-13T08:47:18.275Z,5.32
2023-03-13T08:49:44.968Z,4.90
2023-03-13T08:52:11.447Z,6.10
2023-03-13T08:54:37.859Z,7.32
2023-03-13T08:57:04.240Z,7.57
2023-03-13T08:59:30.726Z,4.25
2023-03-13T09:01:57.224Z,5.55
2023-03-13T09:04:23.580Z,4.13
2023-03-13T09:06:50.017Z,4.05
2023-03-13T09:09:16.487Z,3.95
2023-03-13T09:11:42.909Z,4.30
2023-03-13T09:14:10.157Z,2.40
2023-03-13T09:16:36.829Z,3.65
2023-03-13T09:19:03.297Z,2.05
2023-03-13T09:21:31.342Z,2.50
2023-03-13T09:23:58.316Z,5.18
2023-03-13T09:26:25.287Z,5.07
2023-03-13T09:28:54.053Z,5.15
2023-03-13T09:31:21.694Z,6.15
2023-03-13T09:33:48.714Z,7.75
2023-03-13T09:36:15.161Z,9.35
2023-03-13T09:38:41.581Z,6.88
2023-03-13T09:41:17.155Z,9.43
2023-03-13T09:44:01.890Z,7.68
2023-03-13T09:46:33.863Z,4.97
2023-03-13T09:49:02.457Z,4.03
2023-03-13T09:51:36.605Z,7.57
2023-03-13T09:54:15.171Z,5.00
2023-03-13T09:56:53.220Z,5.75
2023-03-13T09:59:22.559Z,4.93
2023-03-13T10:01:52.434Z,3.45
2023-03-13T10:04:18.818Z,3.33
2023-03-13T10:06:46.102Z,4.25
2023-03-13T10:09:17.650Z,2.92
2023-03-13T10:12:08.219Z,5.95
2023-03-13T10:14:34.596Z,5.22
2023-03-13T10:17:07.220Z,5.38
2023-03-13T10:19:37.731Z,4.03
2023-03-13T10:22:18.493Z,3.60
2023-03-13T10:24:44.869Z,2.30
2023-03-13T10:27:11.594Z,4.25
2023-03-13T10:29:38.734Z,2.22
2023-03-13T10:32:05.994Z,3.08
2023-03-13T10:34:51.405Z,4.15
2023-03-13T10:37:21.234Z,1.80
2023-03-13T10:39:48.856Z,2.08
2023-03-13T10:42:27.918Z,3.28
2023-03-13T10:45:01.612Z,3.15
2023-03-13T10:47:32.526Z,4.05
2023-03-13T10:49:59.280Z,1.63
2023-03-13T10:52:29.932Z,1.80
2023-03-13T10:55:00.096Z,1.70
2023-03-13T10:57:30.667Z,1.25
2023-03-13T10:59:58.124Z,2.33
2023-03-13T11:02:35.621Z,1.35
2023-03-13T11:05:07.170Z,1.25
2023-03-13T11:07:35.136Z,1.55
2023-03-13T11:10:07.797Z,2.50
2023-03-13T11:12:35.073Z,1.23
2023-03-13T11:15:02.062Z,1.33
2023-03-13T11:17:28.559Z,2.90
2023-03-13T11:20:02.643Z,2.42
2023-03-13T11:22:40.621Z,1.85
2023-03-13T11:25:20.730Z,1.67
2023-03-13T11:27:59.626Z,1.88
2023-03-13T11:30:44.960Z,1.98
2023-03-13T11:33:18.152Z,1.13
2023-03-13T11:35:54.751Z,1.00
2023-03-13T11:38:36.657Z,0.95
2023-03-13T11:41:03.000Z,0.88
2023-03-13T11:43:30.415Z,1.15
2023-03-13T11:46:21.660Z,2.35
2023-03-13T11:49:08.476Z,2.22
2023-03-13T11:51:53.532Z,2.30
2023-03-13T11:54:38.756Z,2.50
2023-03-13T11:57:07.207Z,1.63
2023-03-13T11:59:44.124Z,1.92
2023-03-13T12:02:25.891Z,2.60
2023-03-13T12:04:57.515Z,0.77
2023-03-13T12:07:28.417Z,1.52
2023-03-13T12:10:00.184Z,0.90
2023-03-13T12:12:33.832Z,1.50
2023-03-13T12:15:06.206Z,0.93
2023-03-13T12:17:39.044Z,1.10
2023-03-13T12:20:13.639Z,0.70
2023-03-13T12:22:46.423Z,1.27
2023-03-13T12:25:24.670Z,1.02
2023-03-13T12:27:52.897Z,1.67
2023-03-13T12:30:24.500Z,0.50
2023-03-13T12:33:09.802Z,1.58
2023-03-13T12:35:37.720Z,1.33
2023-03-13T12:38:15.208Z,1.02
2023-03-13T12:40:45.111Z,1.05
2023-03-13T12:43:23.348Z,1.23
2023-03-13T12:46:12.443Z,1.20
2023-03-13T12:48:57.640Z,0.45
2023-03-13T12:51:42.879Z,4.43
2023-03-13T12:54:18.536Z,2.38
2023-03-13T12:57:03.829Z,1.88
2023-03-13T12:59:36.832Z,1.25
2023-03-13T13:02:13.140Z,2.42
2023-03-13T13:04:44.892Z,1.00
2023-03-13T13:07:23.629Z,1.50
2023-03-13T13:10:02.343Z,0.75
2023-03-13T13:12:28.997Z,2.40
2023-03-13T13:14:57.988Z,1.20
2023-03-13T13:17:30.575Z,1.13
2023-03-13T13:19:57.341Z,0.80
2023-03-13T13:22:39.125Z,3.38
2023-03-13T13:25:11.634Z,1.33
2023-03-13T13:27:38.018Z,1.73
2023-03-13T13:30:24.360Z,2.88
2023-03-13T13:32:51.982Z,3.00
2023-03-13T13:35:23.373Z,1.65
2023-03-13T13:37:49.973Z,0.68
2023-03-13T13:40:16.418Z,2.03
2023-03-13T13:42:52.956Z,1.63
2023-03-13T13:45:20.440Z,2.45
2023-03-13T13:47:48.153Z,1.98
2023-03-13T13:50:17.786Z,1.67
2023-03-13T13:52:46.545Z,1.60
2023-03-13T13:55:21.980Z,1.52
2023-03-13T13:57:49.713Z,2.45
2023-03-13T14:00:25.011Z,2.70
2023-03-13T14:02:52.953Z,1.73
2023-03-13T14:05:24.565Z,1.10
2023-03-13T14:08:09.481Z,0.90
2023-03-13T14:10:38.010Z,1.52
2023-03-13T14:13:13.981Z,1.17
2023-03-13T14:15:44.973Z,0.77
2023-03-13T14:18:23.696Z,0.60
2023-03-13T14:20:50.025Z,0.77
2023-03-13T14:23:28.274Z,1.25
2023-03-13T14:25:54.644Z,0.88
2023-03-13T14:28:22.991Z,0.73
2023-03-13T14:30:51.263Z,1.50
2023-03-13T14:33:18.228Z,4.05
2023-03-13T14:35:45.226Z,1.02
2023-03-13T14:38:16.356Z,1.10
2023-03-13T14:40:42.743Z,7.43
2023-03-13T14:43:18.550Z,3.78
2023-03-13T14:45:45.234Z,2.63
2023-03-13T14:48:22.844Z,1.67
2023-03-13T14:50:50.374Z,0.55
2023-03-13T14:53:18.009Z,1.08
2023-03-13T14:55:44.662Z,6.85
2023-03-13T14:58:20.174Z,1.88
2023-03-13T15:00:48.234Z,0.88
2023-03-13T15:03:18.818Z,1.38
2023-03-13T15:06:04.173Z,1.27
2023-03-13T15:08:30.697Z,2.72
2023-03-13T15:10:57.396Z,1.48
2023-03-13T15:13:25.293Z,0.93
2023-03-13T15:15:52.354Z,0.90
2023-03-13T15:18:20.269Z,0.85
2023-03-13T15:20:57.295Z,0.40
2023-03-13T15:23:26.234Z,3.15
2023-03-13T15:25:52.632Z,1.50
2023-03-13T15:28:20.629Z,0.45
2023-03-13T15:30:47.840Z,0.50
2023-03-13T15:33:15.335Z,0.73
2023-03-13T15:35:42.182Z,0.75
2023-03-13T15:38:16.134Z,2.30
2023-03-13T15:40:45.406Z,0.50
2023-03-13T15:43:12.342Z,0.40
2023-03-13T15:45:40.462Z,2.75
2023-03-13T15:48:27.811Z,1.00
2023-03-13T15:50:58.920Z,1.58
2023-03-13T15:53:26.710Z,3.40
2023-03-13T15:55:54.523Z,4.25
2023-03-13T15:58:20.973Z,5.18
2023-03-13T16:00:48.363Z,7.72
2023-03-13T16:03:19.733Z,0.95
2023-03-13T16:05:49.338Z,1.00
2023-03-13T16:08:29.219Z,0.95
2023-03-13T16:11:00.535Z,1.33
2023-03-13T16:13:26.993Z,0.85
2023-03-13T16:15:53.438Z,1.13
2023-03-13T16:18:21.197Z,4.88
2023-03-13T16:20:48.183Z,6.72
2023-03-13T16:23:14.837Z,3.50
2023-03-13T16:25:41.241Z,4.10
2023-03-13T16:28:07.688Z,3.72
2023-03-13T16:30:34.651Z,3.25
2023-03-13T16:33:01.106Z,2.35
2023-03-13T16:35:28.263Z,1.63
2023-03-13T16:37:55.694Z,1.08
2023-03-13T16:40:24.408Z,1.55
2023-03-13T16:42:53.367Z,1.35
2023-03-13T16:45:19.980Z,0.70
2023-03-13T16:47:46.845Z,2.25
2023-03-13T16:50:31.790Z,1.63
2023-03-13T16:52:58.204Z,1.73
2023-03-13T16:55:36.980Z,7.25
2023-03-13T16:58:04.126Z,2.92
2023-03-13T17:00:31.187Z,2.97
2023-03-13T17:02:58.233Z,70.30
2023-03-13T17:05:25.221Z,7.85
2023-03-13T17:07:51.980Z,29.92
2023-03-13T17:10:25.855Z,62.92
2023-03-13T17:12:52.547Z,38.38
2023-03-13T17:15:20.149Z,13.48
2023-03-13T17:17:51.645Z,8.32
2023-03-13T17:20:19.951Z,9.93
2023-03-13T17:22:46.414Z,13.18
2023-03-13T17:25:13.305Z,10.45
2023-03-13T17:27:40.286Z,4.15
2023-03-13T17:30:16.877Z,4.35
2023-03-13T17:32:43.309Z,3.83
2023-03-13T17:35:10.494Z,6.53
2023-03-13T17:37:37.003Z,3.88
2023-03-13T17:40:09.137Z,1.40
2023-03-13T17:42:35.599Z,2.13
2023-03-13T17:45:02.027Z,1.42
2023-03-13T17:47:28.481Z,8.45
2023-03-13T17:49:54.932Z,7.07
2023-03-13T17:52:21.362Z,3.20
2023-03-13T17:54:47.732Z,3.22
2023-03-13T17:57:18.690Z,2.38
2023-03-13T17:59:45.755Z,1.95
2023-03-13T18:02:13.327Z,2.13
2023-03-13T18:04:40.319Z,3.50
2023-03-13T18:07:15.983Z,3.35
2023-03-13T18:09:42.427Z,2.50
2023-03-13T18:12:09.903Z,3.95
2023-03-13T18:14:39.675Z,4.70
2023-03-13T18:17:14.350Z,5.22
2023-03-13T18:19:42.934Z,5.07
2023-03-13T18:22:13.491Z,5.90
2023-03-13T18:24:39.870Z,9.65
2023-03-13T18:27:10.516Z,7.55
2023-03-13T18:29:39.305Z,8.02
2023-03-13T18:32:05.770Z,10.98
2023-03-13T18:34:32.263Z,7.68
2023-03-13T18:37:03.543Z,3.80
2023-03-13T18:39:30.914Z,3.65
2023-03-13T18:41:57.438Z,4.00
2023-03-13T18:44:23.913Z,3.75
2023-03-13T18:46:52.127Z,3.50
2023-03-13T18:49:21.651Z,4.30
2023-03-13T18:51:50.950Z,4.57
2023-03-13T18:54:17.748Z,5.07
2023-03-13T18:56:44.788Z,4.20
2023-03-13T18:59:16.552Z,4.25
2023-03-13T19:01:42.930Z,5.05
2023-03-13T19:04:09.350Z,5.22
2023-03-13T19:06:36.716Z,3.88
2023-03-13T19:09:17.358Z,4.75
2023-03-13T19:11:53.096Z,8.35
2023-03-13T19:14:19.491Z,5.18
2023-03-13T19:16:45.931Z,9.75
2023-03-13T19:19:15.547Z,6.25
2023-03-13T19:21:42.125Z,6.90
2023-03-13T19:24:08.744Z,7.57
2023-03-13T19:26:37.017Z,7.05
2023-03-13T19:29:04.248Z,8.38
2023-03-13T19:31:30.948Z,10.68
2023-03-13T19:33:57.478Z,12.23
2023-03-13T19:36:24.711Z,13.63
2023-03-13T19:38:53.702Z,11.45
2023-03-13T19:41:20.188Z,12.85
2023-03-13T19:43:49.059Z,15.60
2023-03-13T19:46:25.159Z,12.77
2023-03-13T19:48:52.612Z,17.10
2023-03-13T19:51:19.128Z,13.35
2023-03-13T19:53:45.528Z,9.13
2023-03-13T19:56:16.862Z,12.82
2023-03-13T19:58:44.005Z,8.07
2023-03-13T20:01:17.200Z,11.23
2023-03-13T20:06:18.216Z,12.55
2023-03-13T20:11:11.538Z,11.13
2023-03-13T20:13:38.256Z,8.95
2023-03-13T20:16:04.993Z,8.20
2023-03-13T20:18:31.493Z,8.98
2023-03-13T20:20:57.934Z,8.70
2023-03-13T20:23:24.360Z,7.28
2023-03-13T20:25:50.893Z,7.97
2023-03-13T20:28:17.347Z,8.57
2023-03-13T20:30:44.599Z,6.75
2023-03-13T20:33:12.040Z,7.65
2023-03-13T20:35:38.909Z,4.82
2023-03-13T20:38:06.110Z,4.93
2023-03-13T20:40:35.570Z,4.35
2023-03-13T20:43:02.143Z,4.75
2023-03-13T20:45:31.418Z,9.90
2023-03-13T20:47:58.753Z,7.80
2023-03-13T20:50:25.532Z,7.93
2023-03-13T20:52:51.981Z,7.25
2023-03-13T20:55:18.386Z,7.55
2023-03-13T20:57:47.306Z,6.20
2023-03-13T21:00:14.078Z,5.50
2023-03-13T21:02:40.585Z,6.55
2023-03-13T21:05:09.452Z,10.00
2023-03-13T21:07:35.885Z,8.15
2023-03-13T21:10:02.614Z,8.30
2023-03-13T21:12:29.230Z,7.97
2023-03-13T21:14:55.666Z,15.98
2023-03-13T21:17:22.060Z,22.92
2023-03-13T21:19:48.425Z,32.83
2023-03-13T21:22:14.809Z,36.03
2023-03-13T21:24:41.330Z,24.35
2023-03-13T21:27:07.665Z,21.88
2023-03-13T21:29:34.113Z,27.23
2023-03-13T21:32:00.478Z,31.70
2023-03-13T21:34:26.906Z,23.80
2023-03-13T21:36:53.256Z,21.77
2023-03-13T21:39:19.889Z,20.67
2023-03-13T21:41:48.487Z,24.23
2023-03-13T21:44:19.553Z,21.90
2023-03-13T21:46:46.435Z,21.58
2023-03-13T21:49:13.538Z,29.65
2023-03-13T21:51:40.052Z,139.65
2023-03-13T21:54:06.440Z,53.00
2023-03-13T21:56:32.803Z,17.23
2023-03-13T21:58:59.283Z,17.95
2023-03-13T22:01:25.632Z,18.63
2023-03-13T22:03:52.041Z,23.67
2023-03-13T22:06:19.892Z,32.20
2023-03-13T22:08:50.143Z,35.67
2023-03-13T22:11:16.945Z,17.48
2023-03-13T22:13:43.386Z,18.08
2023-03-13T22:16:12.817Z,15.32
2023-03-13T22:18:39.621Z,11.52
2023-03-13T22:21:06.599Z,9.30
2023-03-13T22:23:32.926Z,8.95
2023-03-13T22:25:59.747Z,11.60
2023-03-13T22:28:26.855Z,12.07
2023-03-13T22:30:53.258Z,13.35
2023-03-13T22:33:19.678Z,11.52
2023-03-13T22:35:50.090Z,10.18
2023-03-13T22:38:16.462Z,15.63
2023-03-13T22:40:42.843Z,12.38
2023-03-13T22:43:09.212Z,14.65
2023-03-13T22:45:36.339Z,14.93
2023-03-13T22:48:06.193Z,16.20
2023-03-13T22:50:33.685Z,12.73
2023-03-13T22:53:00.319Z,13.38
2023-03-13T22:55:26.681Z,10.95
2023-03-13T22:57:53.193Z,14.00
2023-03-13T23:00:20.140Z,18.33
2023-03-13T23:02:46.734Z,15.52
2023-03-13T23:05:13.082Z,19.13
2023-03-13T23:07:40.903Z,13.32
2023-03-13T23:10:07.970Z,20.38
2023-03-13T23:12:34.361Z,20.20
2023-03-13T23:15:01.995Z,19.70
2023-03-13T23:17:32.237Z,9.20
2023-03-13T23:20:01.151Z,12.98
2023-03-13T23:22:32.789Z,7.82
2023-03-13T23:24:59.208Z,10.43
2023-03-13T23:27:25.621Z,8.10
2023-03-13T23:29:53.051Z,9.60
2023-03-13T23:32:19.579Z,12.82
2023-03-13T23:34:45.946Z,11.82
2023-03-13T23:37:12.285Z,8.05
2023-03-13T23:39:38.659Z,10.80
2023-03-13T23:42:05.055Z,7.80
2023-03-13T23:44:31.580Z,8.32
2023-03-13T23:46:57.975Z,7.50
2023-03-13T23:49:24.456Z,8.60
2023-03-13T23:51:50.909Z,7.95
2023-03-13T23:54:17.344Z,9.38
2023-03-13T23:56:46.212Z,7.70
2023-03-13T23:59:12.626Z,7.38
